Time;durP1;ratioP1;P1;durP2;ratioP2;P2;SDS_P1;SDS_P2;PMS_P1;PMS_P2;Temp;Humidity;BMP_temperature;BMP_pressure;BME280_temperature;BME280_humidity;BME280_pressure;Samples;Min_cycle;Max_cycle;Signal;HPM_P1;HPM_P2
2022/11/21 00:01:14;;;;;;;;;;;;;;;6.92;98.86;98533.38;10190011;23;19993;-76
2022/11/21 00:05:15;;;;;;;;;;;;;;;6.83;98.26;98542.03;10223256;23;19920;-76
2022/11/21 00:09:17;;;;;;;;;;;;;;;6.79;97.93;98527.41;10226247;23;20289;-76
2022/11/21 00:13:19;;;;;;;;;;;;;;;6.74;97.55;98538.59;10200312;23;19999;-76
2022/11/21 00:17:20;;;;;;;;;;;;;;;6.67;97.18;98540.34;10192803;23;20324;-76
2022/11/21 00:21:22;;;;;;;;;;;;;;;6.68;97.62;98541.22;10225126;23;19928;-76
2022/11/21 00:25:23;;;;;;;;;;;;;;;6.64;97.25;98532.59;10226675;23;20007;-76
2022/11/21 00:29:24;;;;;;;;;;;;;;;6.59;97.25;98535.19;10225883;23;19928;-76
2022/11/21 00:33:26;;;;;;;;;;;;;;;6.54;97.26;98534.34;10224657;22;19916;-76
2022/11/21 00:37:27;;;;;;;;;;;;;;;6.57;97.78;98528.31;10247927;23;19927;-77
2022/11/21 00:41:28;;;;;;;;;;;;;;;6.62;97.80;98511.09;10275194;23;20343;-77
2022/11/21 00:45:30;;;;;;;;;;;;;;;6.60;97.97;98507.69;10241842;23;20283;-77
2022/11/21 00:49:31;;;;;;;;;;;;;;;6.60;97.85;98512.84;10225053;23;19999;-77
2022/11/21 00:53:32;;;;;;;;;;;;;;;6.60;98.09;98520.56;10277127;23;19923;-76
2022/11/21 00:57:34;;;;;;;;;;;;;;;6.64;98.11;98518.00;10276590;23;20458;-76
2022/11/21 01:01:36;;;;;;;;;;;;;;;6.61;98.08;98507.69;10269945;23;19935;-77
2022/11/21 01:05:37;;;;;;;;;;;;;;;6.60;97.90;98498.22;10225611;23;19990;-76
2022/11/21 01:09:38;;;;;;;;;;;;;;;6.63;97.99;98487.03;10251290;23;20406;-77
2022/11/21 01:13:40;;;;;;;;;;;;;;;6.62;98.07;98475.00;10251719;23;19920;-77
2022/11/21 01:17:41;;;;;;;;;;;;;;;6.65;98.08;98470.72;10268471;23;20521;-77
2022/11/21 01:21:43;;;;;;;;;;;;;;;6.62;97.78;98478.44;10278399;23;19982;-76
2022/11/21 01:25:44;;;;;;;;;;;;;;;6.64;98.05;98481.91;10226813;23;19928;-77
2022/11/21 01:29:45;;;;;;;;;;;;;;;6.64;98.11;98483.59;10227819;23;20015;-77
2022/11/21 01:33:47;;;;;;;;;;;;;;;6.62;98.19;98490.47;10245478;23;19966;-77
2022/11/21 01:37:49;;;;;;;;;;;;;;;6.59;98.13;98475.00;10256014;23;20299;-77
2022/11/21 01:41:50;;;;;;;;;;;;;;;6.55;98.20;98479.34;10250691;23;20273;-77
2022/11/21 01:45:59;;;;;;;;;;;;;;;6.49;97.97;98481.94;10218226;23;19993;-77
2022/11/21 01:50:00;;;;;;;;;;;;;;;6.48;97.99;98476.78;10226738;23;20007;-77
2022/11/21 01:54:05;;;;;;;;;;;;;;;6.47;98.33;98469.91;10252729;23;19954;-76
2022/11/21 01:58:07;;;;;;;;;;;;;;;6.47;98.16;98460.47;10251715;23;19956;-77
2022/11/21 02:02:10;;;;;;;;;;;;;;;6.46;98.04;98457.84;10244250;23;19924;-76
2022/11/21 02:06:12;;;;;;;;;;;;;;;6.48;98.37;98466.47;10250995;23;19923;-76
2022/11/21 02:10:14;;;;;;;;;;;;;;;6.49;98.29;98473.34;10249979;23;19958;-76
2022/11/21 02:14:15;;;;;;;;;;;;;;;6.53;97.90;98480.19;10275705;23;19928;-77
2022/11/21 02:18:16;;;;;;;;;;;;;;;6.56;98.08;98475.88;10241397;23;19924;-76
2022/11/21 02:22:25;;;;;;;;;;;;;;;6.55;97.67;98466.44;10249933;23;19920;-77
2022/11/21 02:26:27;;;;;;;;;;;;;;;6.53;97.44;98473.31;10249760;23;19920;-77
2022/11/21 02:30:30;;;;;;;;;;;;;;;6.46;97.79;98470.75;10250030;23;19924;-77
2022/11/21 02:34:32;;;;;;;;;;;;;;;6.44;97.68;98465.59;10250197;23;19931;-77
2022/11/21 02:38:37;;;;;;;;;;;;;;;6.45;97.86;98462.16;10249286;23;19928;-77
2022/11/21 02:42:50;;;;;;;;;;;;;;;6.45;97.92;98467.31;10225930;23;19966;-77
2022/11/21 02:46:53;;;;;;;;;;;;;;;6.47;97.83;98464.75;10250169;23;19920;-77
2022/11/21 02:50:54;;;;;;;;;;;;;;;6.47;97.92;98475.06;10274984;23;19923;-77
2022/11/21 02:54:56;;;;;;;;;;;;;;;6.49;98.17;98470.78;10249392;23;20014;-77
2022/11/21 02:58:57;;;;;;;;;;;;;;;6.53;98.37;98470.75;10248250;23;19956;-76
2022/11/21 03:02:58;;;;;;;;;;;;;;;6.54;98.52;98458.72;10250276;23;20274;-76
2022/11/21 03:07:00;;;;;;;;;;;;;;;6.54;98.21;98451.81;10227744;23;19982;-77
2022/11/21 03:11:01;;;;;;;;;;;;;;;6.56;98.13;98457.84;10227459;23;19931;-76
2022/11/21 03:15:04;;;;;;;;;;;;;;;6.61;98.26;98453.50;10246232;23;19924;-76
2022/11/21 03:19:05;;;;;;;;;;;;;;;6.64;98.21;98452.63;10275675;23;19988;-76
2022/11/21 03:23:06;;;;;;;;;;;;;;;6.67;98.43;98444.91;10227080;23;20415;-76
2022/11/21 03:27:08;;;;;;;;;;;;;;;6.65;98.42;98438.91;10252061;23;19920;-76
2022/11/21 03:31:09;;;;;;;;;;;;;;;6.70;98.61;98441.47;10244354;23;19978;-76
2022/11/21 03:35:10;;;;;;;;;;;;;;;6.73;98.53;98439.72;10200904;23;20272;-76
2022/11/21 03:39:12;;;;;;;;;;;;;;;6.75;98.43;98437.97;10227860;23;19979;-76
2022/11/21 03:43:13;;;;;;;;;;;;;;;6.72;98.34;98432.84;10231837;23;20447;-77
2022/11/21 03:47:14;;;;;;;;;;;;;;;6.68;98.00;98432.88;10221780;23;19924;-76
2022/11/21 03:51:16;;;;;;;;;;;;;;;6.66;97.89;98428.56;10229329;23;19928;-76
2022/11/21 03:55:17;;;;;;;;;;;;;;;6.63;97.79;98420.81;10204124;23;19935;-76
2022/11/21 03:59:19;;;;;;;;;;;;;;;6.54;97.40;98420.88;10229485;23;19931;-77
2022/11/21 04:03:20;;;;;;;;;;;;;;;6.48;97.38;98428.66;10196119;23;20391;-76
2022/11/21 04:07:21;;;;;;;;;;;;;;;6.41;96.77;98426.94;10226717;23;19924;-76
2022/11/21 04:11:23;;;;;;;;;;;;;;;6.31;96.86;98420.97;10225363;23;19936;-77
2022/11/21 04:15:24;;;;;;;;;;;;;;;6.25;96.59;98426.13;10218719;23;20379;-76
2022/11/21 04:19:26;;;;;;;;;;;;;;;6.17;96.25;98432.19;10227501;23;19932;-76
2022/11/21 04:23:27;;;;;;;;;;;;;;;6.06;95.80;98427.88;10227045;23;19924;-76
2022/11/21 04:27:28;;;;;;;;;;;;;;;6.00;95.79;98438.22;10226733;23;19974;-76
2022/11/21 04:31:30;;;;;;;;;;;;;;;5.95;95.54;98444.25;10219475;23;19952;-76
2022/11/21 04:35:31;;;;;;;;;;;;;;;5.86;95.74;98439.91;10201044;23;20011;-76
2022/11/21 04:39:32;;;;;;;;;;;;;;;5.77;95.67;98437.38;10201691;23;19924;-76
2022/11/21 04:43:34;;;;;;;;;;;;;;;5.70;95.37;98436.50;10228560;23;19960;-76
2022/11/21 04:47:36;;;;;;;;;;;;;;;5.63;95.59;98446.81;10218616;23;19979;-76
2022/11/21 04:51:38;;;;;;;;;;;;;;;5.58;95.72;98454.53;10200861;23;20003;-76
2022/11/21 04:55:39;;;;;;;;;;;;;;;5.48;96.04;98450.22;10221830;23;19986;-76
2022/11/21 04:59:40;;;;;;;;;;;;;;;5.40;96.21;98451.94;10249312;23;19927;-76
2022/11/21 05:03:41;;;;;;;;;;;;;;;5.34;96.09;98447.63;10222747;23;19959;-76
2022/11/21 05:07:43;;;;;;;;;;;;;;;5.27;96.83;98451.06;10197698;23;19924;-76
2022/11/21 05:16:05;;;;;;;;;;;;;;;5.14;97.11;98442.47;10215423;23;20327;-76
2022/11/21 05:20:07;;;;;;;;;;;;;;;5.14;96.98;98444.19;10222376;23;20646;-77
2022/11/21 05:24:08;;;;;;;;;;;;;;;5.11;97.15;98439.03;10197992;23;19931;-77
2022/11/21 05:28:10;;;;;;;;;;;;;;;5.05;96.84;98429.59;10222866;23;19956;-77
2022/11/21 05:32:11;;;;;;;;;;;;;;;5.00;97.38;98441.56;10215438;23;19994;-76
2022/11/21 05:36:12;;;;;;;;;;;;;;;4.93;97.17;98431.28;10261590;23;20579;-76
2022/11/21 05:40:14;;;;;;;;;;;;;;;4.83;97.44;98438.94;10247149;23;20299;-76
2022/11/21 05:44:15;;;;;;;;;;;;;;;4.79;97.14;98444.09;10221504;23;19946;-76
2022/11/21 05:48:17;;;;;;;;;;;;;;;4.71;97.10;98438.06;10238022;23;19947;-76
2022/11/21 05:52:18;;;;;;;;;;;;;;;4.67;97.64;98428.59;10273490;23;19948;-76
2022/11/21 05:56:19;;;;;;;;;;;;;;;4.59;97.52;98441.44;10246078;23;19953;-76
2022/11/21 06:00:21;;;;;;;;;;;;;;;4.55;97.84;98434.56;10213793;23;19969;-76
2022/11/21 06:04:22;;;;;;;;;;;;;;;4.49;98.27;98432.00;10223246;23;19930;-76
2022/11/21 06:08:24;;;;;;;;;;;;;;;4.41;97.96;98434.50;10220927;23;19924;-76
2022/11/21 06:12:25;;;;;;;;;;;;;;;4.39;98.28;98443.94;10245034;23;20003;-76
2022/11/21 06:16:27;;;;;;;;;;;;;;;4.40;98.68;98437.06;10236475;23;19927;-77
2022/11/21 06:20:28;;;;;;;;;;;;;;;4.43;99.11;98432.81;10244241;23;20223;-76
2022/11/21 06:24:30;;;;;;;;;;;;;;;4.43;99.00;98432.81;10221304;23;19985;-76
2022/11/21 06:28:33;;;;;;;;;;;;;;;4.45;99.31;98432.81;10245636;23;19970;-76
2022/11/21 06:32:35;;;;;;;;;;;;;;;4.48;99.86;98435.38;10238914;23;19951;-77
2022/11/21 06:36:37;;;;;;;;;;;;;;;4.46;99.48;98440.53;10222419;23;20043;-77
2022/11/21 06:40:38;;;;;;;;;;;;;;;4.47;99.49;98433.66;10198185;23;19991;-77
2022/11/21 06:44:40;;;;;;;;;;;;;;;4.50;100.00;98426.00;10198537;23;19924;-77
2022/11/21 06:48:42;;;;;;;;;;;;;;;4.51;99.80;98438.84;10216469;23;19924;-77
2022/11/21 06:52:43;;;;;;;;;;;;;;;4.58;100.00;98434.59;10224015;23;19924;-77
2022/11/21 06:56:44;;;;;;;;;;;;;;;4.65;100.00;98431.16;10223519;23;19920;-77
2022/11/21 07:00:47;;;;;;;;;;;;;;;4.64;100.00;98426.88;10192243;23;19943;-77
2022/11/21 07:04:48;;;;;;;;;;;;;;;4.68;100.00;98427.78;10199636;23;19966;-77
2022/11/21 07:08:53;;;;;;;;;;;;;;;4.72;100.00;98422.66;10224762;23;19925;-77
2022/11/21 07:13:20;;;;;;;;;;;;;;;4.81;100.00;98426.94;10223581;23;20479;-77
2022/11/21 07:17:21;;;;;;;;;;;;;;;4.83;100.00;98427.81;10229433;23;19975;-77
2022/11/21 07:21:23;;;;;;;;;;;;;;;4.88;100.00;98427.84;10229618;23;20591;-79
2022/11/21 07:25:24;;;;;;;;;;;;;;;4.95;100.00;98421.84;10203756;23;20031;-78
2022/11/21 07:29:25;;;;;;;;;;;;;;;5.03;100.00;98425.31;10203226;23;19924;-78
2022/11/21 07:33:28;;;;;;;;;;;;;;;5.10;100.00;98417.59;10224572;23;20780;-78
2022/11/21 07:37:29;;;;;;;;;;;;;;;5.20;100.00;98422.72;10227938;23;19924;-78
2022/11/21 07:41:31;;;;;;;;;;;;;;;5.25;100.00;98416.75;10228311;23;19924;-78
2022/11/21 07:45:33;;;;;;;;;;;;;;;5.29;100.00;98412.47;10244467;23;20038;-78
2022/11/21 07:49:34;;;;;;;;;;;;;;;5.36;100.00;98404.72;10250844;23;19920;-78
2022/11/21 07:53:36;;;;;;;;;;;;;;;5.37;100.00;98391.00;10226779;23;19932;-78
2022/11/21 07:57:37;;;;;;;;;;;;;;;5.34;100.00;98383.28;10250393;23;19924;-78
2022/11/21 08:01:39;;;;;;;;;;;;;;;5.42;100.00;98378.16;10242991;23;19924;-78
2022/11/21 08:05:45;;;;;;;;;;;;;;;5.57;100.00;98378.16;10229250;23;19985;-79
2022/11/21 08:09:47;;;;;;;;;;;;;;;5.79;100.00;98368.69;10233620;23;19954;-79
2022/11/21 08:13:49;;;;;;;;;;;;;;;6.08;100.00;98373.78;10258530;23;19924;-80
2022/11/21 08:17:50;;;;;;;;;;;;;;;6.26;100.00;98367.69;10278128;23;19923;-77
2022/11/21 08:21:52;;;;;;;;;;;;;;;6.29;99.88;98367.72;10256375;23;19927;-77
2022/11/21 08:25:53;;;;;;;;;;;;;;;6.31;99.66;98372.00;10253923;23;19924;-77
2022/11/21 08:29:54;;;;;;;;;;;;;;;6.33;99.27;98372.00;10253462;23;20299;-77
2022/11/21 08:33:56;;;;;;;;;;;;;;;6.36;99.36;98372.81;10225799;23;20358;-77
2022/11/21 08:37:58;;;;;;;;;;;;;;;6.43;99.48;98365.06;10282659;23;19923;-77
2022/11/21 08:42:02;;;;;;;;;;;;;;;6.51;99.63;98351.28;10256218;23;19923;-77
2022/11/21 08:46:04;;;;;;;;;;;;;;;6.58;99.57;98340.06;10230024;23;19923;-77
2022/11/21 08:50:05;;;;;;;;;;;;;;;6.72;99.22;98329.66;10254272;23;19962;-77
2022/11/21 08:54:09;;;;;;;;;;;;;;;6.84;99.51;98318.41;10283385;23;20303;-78
2022/11/21 08:58:10;;;;;;;;;;;;;;;6.94;99.28;98317.47;10261200;23;20394;-78
2022/11/21 09:02:12;;;;;;;;;;;;;;;7.00;98.75;98320.00;10289919;23;19950;-79
2022/11/21 09:06:14;;;;;;;;;;;;;;;7.06;98.40;98327.72;10262696;23;19923;-78
2022/11/21 09:10:15;;;;;;;;;;;;;;;7.13;97.53;98318.19;10256939;23;19999;-77
2022/11/21 09:18:36;;;;;;;;;;;;;;;7.31;97.19;98296.53;10248527;23;19923;-78
2022/11/21 09:22:38;;;;;;;;;;;;;;;7.34;96.27;98299.06;10282432;23;20521;-77
2022/11/21 09:26:39;;;;;;;;;;;;;;;7.44;95.53;98296.41;10228680;23;20306;-77
2022/11/21 09:30:41;;;;;;;;;;;;;;;7.59;95.40;98295.41;10218001;23;19928;-77
2022/11/21 09:34:42;;;;;;;;;;;;;;;7.72;95.26;98294.41;10250137;23;20034;-77
2022/11/21 09:38:44;;;;;;;;;;;;;;;7.76;94.26;98295.22;10246203;23;19995;-77
2022/11/21 09:43:00;;;;;;;;;;;;;;;7.83;93.72;98291.69;10222101;23;19993;-78
2022/11/21 09:47:09;;;;;;;;;;;;;;;7.90;92.41;98290.75;10265355;23;19951;-78
2022/11/21 09:51:12;;;;;;;;;;;;;;;7.96;91.96;98284.66;10221299;23;19966;-77
2022/11/21 09:55:23;;;;;;;;;;;;;;;8.05;91.81;98275.03;10248025;23;20011;-78
2022/11/21 09:59:24;;;;;;;;;;;;;;;8.31;91.26;98266.13;10274954;23;19924;-78
2022/11/21 10:03:27;;;;;;;;;;;;;;;8.39;89.87;98262.56;10217316;23;19920;-79
2022/11/21 10:07:31;;;;;;;;;;;;;;;8.51;90.14;98252.94;10227015;23;19924;-79
2022/11/21 10:11:32;;;;;;;;;;;;;;;8.45;87.84;98239.22;10251608;23;19994;-79
2022/11/21 10:15:36;;;;;;;;;;;;;;;8.43;86.86;98222.84;10243462;23;19935;-79
2022/11/21 10:20:02;;;;;;;;;;;;;;;8.56;87.43;98220.09;10251212;23;19981;-79
2022/11/21 10:24:12;;;;;;;;;;;;;;;8.61;87.40;98203.59;10274916;23;19928;-80
2022/11/21 10:28:32;;;;;;;;;;;;;;;8.55;85.16;98190.75;10228264;23;19931;-79
2022/11/21 10:32:42;;;;;;;;;;;;;;;8.51;85.20;98181.34;10217979;23;19924;-79
2022/11/21 10:36:47;;;;;;;;;;;;;;;8.40;84.85;98172.91;10225605;23;20610;-78
2022/11/21 10:41:03;;;;;;;;;;;;;;;8.38;85.24;98167.75;10226283;23;20011;-80
2022/11/21 10:45:18;;;;;;;;;;;;;;;8.39;85.43;98178.94;10218630;23;20411;-78
2022/11/21 10:49:19;;;;;;;;;;;;;;;8.35;86.01;98167.78;10225385;23;19947;-79
2022/11/21 10:57:43;;;;;;;;;;;;;;;8.40;86.33;98152.19;10227908;23;20406;-79
2022/11/21 11:01:53;;;;;;;;;;;;;;;8.47;86.57;98146.06;10195846;23;20010;-79
2022/11/21 11:05:58;;;;;;;;;;;;;;;8.44;86.52;98140.94;10226888;23;20170;-78
2022/11/21 11:10:32;;;;;;;;;;;;;;;8.33;85.68;98137.63;10224533;23;19928;-78
2022/11/21 11:14:33;;;;;;;;;;;;;;;8.27;86.51;98123.09;10206013;23;20521;-77
2022/11/21 11:18:53;;;;;;;;;;;;;;;8.24;87.30;98123.09;10189475;23;20667;-77
2022/11/21 11:22:55;;;;;;;;;;;;;;;8.22;87.38;98101.59;10199366;23;19931;-77
2022/11/21 11:27:01;;;;;;;;;;;;;;;8.27;88.87;98099.81;10223587;23;20010;-79
2022/11/21 11:31:02;;;;;;;;;;;;;;;8.38;89.53;98076.38;10218966;23;19932;-78
2022/11/21 11:35:13;;;;;;;;;;;;;;;8.46;89.34;98064.19;10254347;23;19927;-78
2022/11/21 11:39:21;;;;;;;;;;;;;;;8.58;89.04;98053.59;10257584;23;19943;-80
2022/11/21 11:47:57;;;;;;;;;;;;;;;8.73;88.81;98026.59;10244229;23;19947;-78
2022/11/21 11:52:02;;;;;;;;;;;;;;;8.79;88.67;98031.63;10253568;23;19935;-79
2022/11/21 11:56:07;;;;;;;;;;;;;;;8.87;87.89;98013.38;10252713;23;19959;-78
2022/11/21 12:00:12;;;;;;;;;;;;;;;8.97;87.30;98012.31;10222575;23;19939;-79
2022/11/21 12:04:18;;;;;;;;;;;;;;;9.04;86.02;97993.19;10259390;23;20728;-79
2022/11/21 12:08:47;;;;;;;;;;;;;;;9.12;86.96;97983.50;10263187;23;19956;-81
2022/11/21 12:12:51;;;;;;;;;;;;;;;9.27;87.21;97970.25;10233090;23;20405;-80
2022/11/21 12:16:52;;;;;;;;;;;;;;;9.28;87.30;97959.00;10254491;23;19951;-79
2022/11/21 12:21:14;;;;;;;;;;;;;;;9.31;85.91;97952.88;10264705;23;19946;-81
2022/11/21 12:25:16;;;;;;;;;;;;;;;9.40;86.44;97939.75;10263601;23;20007;-79
2022/11/21 12:29:19;;;;;;;;;;;;;;;9.30;84.62;97933.06;10239593;23;19924;-80
2022/11/21 12:33:21;;;;;;;;;;;;;;;9.28;84.32;97932.25;10282241;23;19940;-79
2022/11/21 12:37:46;;;;;;;;;;;;;;;9.28;85.31;97925.31;10264526;23;20246;-79
2022/11/21 12:46:18;;;;;;;;;;;;;;;9.36;85.41;97892.34;10261368;23;19934;-81
2022/11/21 12:55:03;;;;;;;;;;;;;;;9.44;85.82;97904.25;10294207;23;19931;-82
2022/11/21 12:59:07;;;;;;;;;;;;;;;9.40;85.39;97900.88;10297453;23;19924;-84
2022/11/21 13:03:20;;;;;;;;;;;;;;;9.31;84.48;97885.53;10261610;23;19924;-81
2022/11/21 13:07:22;;;;;;;;;;;;;;;9.22;84.32;97872.81;10270740;23;19928;-78
2022/11/21 13:11:57;;;;;;;;;;;;;;;9.22;85.78;97867.66;10265984;23;19924;-78
2022/11/21 13:15:59;;;;;;;;;;;;;;;9.17;84.88;97867.75;10255815;23;20223;-79
2022/11/21 13:20:04;;;;;;;;;;;;;;;9.15;84.94;97853.13;10262134;23;19982;-80
2022/11/21 13:24:06;;;;;;;;;;;;;;;9.07;84.92;97842.97;10267556;23;20264;-80
2022/11/21 13:28:10;;;;;;;;;;;;;;;9.00;84.75;97831.91;10262940;23;19924;-79
2022/11/21 13:32:35;;;;;;;;;;;;;;;8.99;85.94;97816.41;10231241;23;19935;-80
2022/11/21 13:36:38;;;;;;;;;;;;;;;8.96;85.91;97822.47;10237518;23;19928;-80
2022/11/21 13:42:56;;;;;;;;;;;;;;;8.93;85.66;97807.03;10236934;23;19924;-78
2022/11/21 13:45:20;;;;;;;;;;;;;;;8.87;85.43;97799.41;10235510;23;20247;-80
2022/11/21 13:49:25;;;;;;;;;;;;;;;8.83;86.10;97774.50;10236230;23;19967;-79
2022/11/21 13:53:27;;;;;;;;;;;;;;;8.86;87.04;97753.72;10210110;23;19951;-80
2022/11/21 13:57:28;;;;;;;;;;;;;;;8.88;87.63;97740.75;10233034;23;19931;-79
2022/11/21 14:01:45;;;;;;;;;;;;;;;8.83;86.05;97720.16;10225931;23;19976;-80
2022/11/21 14:06:05;;;;;;;;;;;;;;;8.81;86.55;97716.75;10231888;23;19935;-84
2022/11/21 14:10:25;;;;;;;;;;;;;;;8.81;87.42;97714.16;10205474;23;19924;-81
2022/11/21 14:14:28;;;;;;;;;;;;;;;8.82;86.77;97717.59;10206737;23;19924;-80
2022/11/21 14:18:31;;;;;;;;;;;;;;;8.77;86.47;97700.44;10199783;23;19928;-80
2022/11/21 14:22:40;;;;;;;;;;;;;;;8.74;86.71;97686.72;10232133;23;19935;-81
2022/11/21 14:26:47;;;;;;;;;;;;;;;8.72;86.68;97679.00;10208408;23;19924;-82
2022/11/21 14:30:55;;;;;;;;;;;;;;;8.66;86.92;97671.41;10231826;23;19967;-78
2022/11/21 14:35:06;;;;;;;;;;;;;;;8.64;86.65;97664.56;10228002;23;20742;-81
2022/11/21 14:39:08;;;;;;;;;;;;;;;8.61;86.30;97652.53;10257064;23;21177;-85
2022/11/21 14:43:31;;;;;;;;;;;;;;;8.59;87.48;97645.69;10257838;23;19990;-78
2022/11/21 14:47:32;;;;;;;;;;;;;;;8.54;86.92;97640.66;10248629;23;20480;-79
2022/11/21 14:51:34;;;;;;;;;;;;;;;8.48;86.82;97631.31;10255218;23;19999;-83
2022/11/21 14:55:36;;;;;;;;;;;;;;;8.43;87.10;97615.03;10228791;23;20223;-82
2022/11/21 14:59:39;;;;;;;;;;;;;;;8.41;86.90;97614.22;10252719;23;19959;-79
2022/11/21 15:03:52;;;;;;;;;;;;;;;8.35;87.87;97613.53;10249708;23;20322;-80
2022/11/21 15:07:54;;;;;;;;;;;;;;;8.24;86.63;97599.97;10231088;23;19954;-78
2022/11/21 15:12:24;;;;;;;;;;;;;;;8.16;86.95;97551.88;10279101;23;19940;-78
2022/11/21 15:16:26;;;;;;;;;;;;;;;8.09;87.83;97521.94;10244113;23;19924;-77
2022/11/21 15:20:28;;;;;;;;;;;;;;;8.04;87.94;97516.00;10253816;23;19924;-77
2022/11/21 15:24:36;;;;;;;;;;;;;;;7.99;88.42;97499.75;10279186;23;19928;-78
2022/11/21 15:28:52;;;;;;;;;;;;;;;7.90;88.56;97494.84;10275569;23;19934;-79
2022/11/21 15:33:21;;;;;;;;;;;;;;;7.84;89.31;97480.31;10218599;23;19945;-77
2022/11/21 15:37:24;;;;;;;;;;;;;;;7.78;89.78;97464.13;10226593;23;20401;-77
2022/11/21 15:41:26;;;;;;;;;;;;;;;7.74;89.68;97460.75;10252616;23;20304;-77
2022/11/21 15:45:27;;;;;;;;;;;;;;;7.70;90.29;97447.94;10221213;23;20402;-77
2022/11/21 15:49:29;;;;;;;;;;;;;;;7.67;90.19;97443.69;10253451;23;19924;-77
2022/11/21 15:53:34;;;;;;;;;;;;;;;7.60;90.49;97436.16;10283403;23;19923;-78
2022/11/21 15:57:35;;;;;;;;;;;;;;;7.56;90.98;97433.66;10252951;23;19920;-78
2022/11/21 16:01:37;;;;;;;;;;;;;;;7.49;90.84;97431.22;10220883;23;19981;-78
2022/11/21 16:05:38;;;;;;;;;;;;;;;7.44;90.69;97408.09;10277980;23;20506;-78
2022/11/21 16:09:41;;;;;;;;;;;;;;;7.44;91.03;97407.25;10229067;23;20373;-78
2022/11/21 16:13:46;;;;;;;;;;;;;;;7.41;91.16;97412.50;10279910;23;20231;-79
2022/11/21 16:17:48;;;;;;;;;;;;;;;7.42;91.28;97424.53;10222122;23;19928;-79
2022/11/21 16:21:50;;;;;;;;;;;;;;;7.36;90.75;97429.81;10254717;23;19979;-78
2022/11/21 16:25:54;;;;;;;;;;;;;;;7.33;91.26;97432.47;10253373;23;19958;-79
2022/11/21 16:29:56;;;;;;;;;;;;;;;7.25;91.30;97428.34;10254993;23;19931;-78
2022/11/21 16:33:59;;;;;;;;;;;;;;;7.23;91.69;97416.34;10223405;23;20287;-78
2022/11/21 16:38:00;;;;;;;;;;;;;;;7.23;91.70;97406.03;10229386;23;19928;-78
2022/11/21 16:42:02;;;;;;;;;;;;;;;7.24;91.93;97402.56;10230122;23;20227;-78
2022/11/21 16:46:07;;;;;;;;;;;;;;;7.23;91.40;97409.47;10246455;23;20228;-78
2022/11/21 16:50:08;;;;;;;;;;;;;;;7.20;91.53;97391.47;10275271;23;19928;-78
2022/11/21 16:54:10;;;;;;;;;;;;;;;7.22;91.49;97379.38;10250408;23;19920;-78
2022/11/21 16:58:11;;;;;;;;;;;;;;;7.23;91.41;97363.00;10279504;23;19981;-78
2022/11/21 17:02:12;;;;;;;;;;;;;;;7.20;91.00;97362.22;10279233;23;19924;-78
2022/11/21 17:06:17;;;;;;;;;;;;;;;7.20;91.23;97355.34;10228286;23;19999;-78
2022/11/21 17:10:18;;;;;;;;;;;;;;;7.19;91.29;97361.38;10229440;23;19920;-78
2022/11/21 17:14:20;;;;;;;;;;;;;;;7.17;91.43;97363.13;10226986;23;19924;-78
2022/11/21 17:18:21;;;;;;;;;;;;;;;7.14;91.70;97347.72;10244842;23;19979;-78
2022/11/21 17:22:24;;;;;;;;;;;;;;;7.14;91.49;97357.19;10227790;23;19935;-78
2022/11/21 17:26:26;;;;;;;;;;;;;;;7.11;91.32;97347.78;10278404;23;20031;-78
2022/11/21 17:30:29;;;;;;;;;;;;;;;7.12;91.16;97353.81;10244654;23;19920;-78
2022/11/21 17:34:30;;;;;;;;;;;;;;;7.14;91.06;97344.28;10252282;23;19994;-78
2022/11/21 17:38:33;;;;;;;;;;;;;;;7.14;91.23;97331.38;10227146;23;19924;-78
2022/11/21 17:42:35;;;;;;;;;;;;;;;7.14;91.46;97342.56;10226972;23;19931;-78
2022/11/21 17:46:36;;;;;;;;;;;;;;;7.16;91.68;97348.53;10242218;23;19998;-78
2022/11/21 17:50:38;;;;;;;;;;;;;;;7.17;91.40;97350.22;10252187;23;19928;-78
2022/11/21 17:54:40;;;;;;;;;;;;;;;7.15;91.19;97346.84;10278598;23;20007;-78
2022/11/21 17:58:41;;;;;;;;;;;;;;;7.16;91.02;97342.50;10277548;23;19932;-78
2022/11/21 18:02:42;;;;;;;;;;;;;;;7.16;90.66;97335.63;10244622;23;19987;-78
2022/11/21 18:06:44;;;;;;;;;;;;;;;7.17;90.39;97331.31;10252566;23;19927;-78
2022/11/21 18:10:50;;;;;;;;;;;;;;;7.21;89.86;97314.88;10278528;23;19934;-79
2022/11/21 18:14:52;;;;;;;;;;;;;;;7.21;89.82;97318.31;10252460;23;20011;-78
2022/11/21 18:18:55;;;;;;;;;;;;;;;7.22;90.00;97298.50;10241939;23;19947;-77
2022/11/21 18:22:56;;;;;;;;;;;;;;;7.23;89.79;97293.31;10251511;23;20313;-77
2022/11/21 18:26:57;;;;;;;;;;;;;;;7.25;89.95;97286.38;10225550;23;20246;-77
2022/11/21 18:31:02;;;;;;;;;;;;;;;7.24;89.97;97276.94;10219162;23;20321;-77
2022/11/21 18:35:04;;;;;;;;;;;;;;;7.23;90.22;97277.81;10221191;23;20288;-76
2022/11/21 18:39:06;;;;;;;;;;;;;;;7.24;90.94;97264.03;10220134;23;19924;-76
2022/11/21 18:43:15;;;;;;;;;;;;;;;7.21;91.69;97265.84;10272492;23;19955;-77
2022/11/21 18:47:16;;;;;;;;;;;;;;;7.19;91.96;97268.47;10242998;23;20496;-78
2022/11/21 18:51:25;;;;;;;;;;;;;;;7.16;92.43;97262.50;10247163;23;19924;-77
2022/11/21 18:55:38;;;;;;;;;;;;;;;7.15;92.59;97265.97;10223830;23;19998;-77
2022/11/21 18:59:39;;;;;;;;;;;;;;;7.13;93.28;97262.59;10272111;23;20655;-77
2022/11/21 19:03:41;;;;;;;;;;;;;;;7.15;93.76;97260.81;10214401;23;19928;-77
2022/11/21 19:07:42;;;;;;;;;;;;;;;7.12;94.38;97263.47;10247985;23;19959;-76
2022/11/21 19:11:44;;;;;;;;;;;;;;;7.12;94.60;97263.47;10228263;23;19924;-77
2022/11/21 19:15:45;;;;;;;;;;;;;;;7.07;94.68;97257.59;10272479;23;20204;-76
2022/11/21 19:19:47;;;;;;;;;;;;;;;7.02;95.06;97256.88;10252843;23;19924;-76
2022/11/21 19:23:49;;;;;;;;;;;;;;;7.03;95.08;97256.00;10279911;23;20469;-76
2022/11/21 19:27:50;;;;;;;;;;;;;;;7.05;95.51;97234.41;10252541;23;19928;-77
2022/11/21 19:31:52;;;;;;;;;;;;;;;7.02;95.96;97218.19;10243977;23;19932;-76
2022/11/21 19:35:58;;;;;;;;;;;;;;;7.01;96.15;97217.34;10203845;23;19954;-77
2022/11/21 19:39:59;;;;;;;;;;;;;;;7.00;96.34;97219.91;10208261;23;19924;-77
2022/11/21 19:44:01;;;;;;;;;;;;;;;6.94;96.02;97214.03;10203794;23;20371;-77
2022/11/21 19:48:02;;;;;;;;;;;;;;;6.90;96.53;97220.16;10219735;23;19924;-76
2022/11/21 19:52:03;;;;;;;;;;;;;;;6.85;96.73;97222.03;10227558;23;19960;-76
2022/11/21 19:56:13;;;;;;;;;;;;;;;6.84;96.88;97214.31;10226290;23;20712;-76
2022/11/21 20:00:14;;;;;;;;;;;;;;;6.84;97.38;97220.31;10195384;23;19920;-77
2022/11/21 20:04:15;;;;;;;;;;;;;;;6.87;97.57;97221.97;10200611;23;19924;-76
2022/11/21 20:08:17;;;;;;;;;;;;;;;6.88;97.55;97205.63;10226282;23;19924;-76
2022/11/21 20:12:18;;;;;;;;;;;;;;;6.84;98.01;97206.59;10228102;23;19977;-77
2022/11/21 20:16:22;;;;;;;;;;;;;;;6.84;97.96;97198.84;10245687;23;19959;-77
2022/11/21 20:20:23;;;;;;;;;;;;;;;6.80;98.08;97182.56;10227113;23;19970;-77
2022/11/21 20:24:25;;;;;;;;;;;;;;;6.77;98.34;97182.66;10225343;23;19986;-77
2022/11/21 20:28:27;;;;;;;;;;;;;;;6.75;98.20;97179.28;10199539;23;19999;-77
2022/11/21 20:32:30;;;;;;;;;;;;;;;6.69;98.25;97173.44;10220043;23;19947;-77
2022/11/21 20:36:32;;;;;;;;;;;;;;;6.69;98.33;97181.16;10224359;23;19959;-76
2022/11/21 20:40:33;;;;;;;;;;;;;;;6.68;98.69;97184.63;10229031;23;19956;-79
2022/11/21 20:44:37;;;;;;;;;;;;;;;6.66;98.78;97184.66;10228364;23;20011;-79
2022/11/21 20:48:58;;;;;;;;;;;;;;;6.68;98.91;97172.59;10219816;23;19983;-79
2022/11/21 20:52:59;;;;;;;;;;;;;;;6.70;99.24;97160.50;10226095;23;20409;-78
2022/11/21 20:57:21;;;;;;;;;;;;;;;6.71;99.34;97159.59;10204172;23;19924;-78
2022/11/21 21:01:23;;;;;;;;;;;;;;;6.72;99.43;97157.88;10178276;23;20610;-77
2022/11/21 21:05:24;;;;;;;;;;;;;;;6.75;99.52;97157.78;10194112;23;20443;-77
2022/11/21 21:09:26;;;;;;;;;;;;;;;6.73;99.26;97147.53;9977799;23;19967;-77
2022/11/21 21:13:28;;;;;;;;;;;;;;;6.76;99.33;97144.00;10177883;23;19935;-77
2022/11/21 21:17:29;;;;;;;;;;;;;;;6.80;99.58;97137.88;10143431;23;20003;-77
2022/11/21 21:21:31;;;;;;;;;;;;;;;6.80;99.61;97145.63;10171592;23;19924;-77
2022/11/21 21:25:33;;;;;;;;;;;;;;;6.77;99.46;97143.97;10176899;23;19928;-77
2022/11/21 21:29:35;;;;;;;;;;;;;;;6.76;99.55;97129.38;10174440;23;19947;-77
2022/11/21 21:33:37;;;;;;;;;;;;;;;6.77;99.68;97137.97;10173535;23;19932;-77